Time;durP1;ratioP1;P1;durP2;ratioP2;P2;SDS_P1;SDS_P2;PMS_P1;PMS_P2;Temp;Humidity;BMP_temperature;BMP_pressure;BME280_temperature;BME280_humidity;BME280_pressure;Samples;Min_cycle;Max_cycle;Signal;HPM_P1;HPM_P2
2022/02/19 00:02:23;;;;;;;8.32;1.60;;;;;;;7.48;63.33;98671.47;5192527;28;20494;-79
2022/02/19 00:04:53;;;;;;;9.43;1.70;;;;;;;7.56;63.15;98684.88;5200540;28;20033;-79
2022/02/19 00:07:23;;;;;;;11.77;1.60;;;;;;;7.51;63.50;98712.88;5191075;28;20656;-80
2022/02/19 00:09:53;;;;;;;11.90;1.27;;;;;;;7.49;62.44;98712.13;5194412;28;20453;-79
2022/02/19 00:12:24;;;;;;;8.73;1.35;;;;;;;7.49;62.82;98704.34;5191623;28;20025;-79
2022/02/19 00:14:54;;;;;;;7.22;1.23;;;;;;;7.50;62.19;98697.38;5174703;28;20412;-79
2022/02/19 00:17:25;;;;;;;9.93;1.35;;;;;;;7.45;62.55;98707.16;5193887;28;20029;-79
2022/02/19 00:19:55;;;;;;;6.72;1.10;;;;;;;7.48;61.48;98702.66;5191190;28;20034;-79
2022/02/19 00:22:26;;;;;;;8.32;1.67;;;;;;;7.44;62.22;98706.34;5193649;28;20035;-79
2022/02/19 00:24:57;;;;;;;6.50;1.40;;;;;;;7.43;62.94;98709.88;5190222;28;20028;-79
2022/02/19 00:27:27;;;;;;;6.88;1.50;;;;;;;7.37;63.37;98689.38;5193385;28;20037;-79
2022/02/19 00:29:57;;;;;;;8.73;1.35;;;;;;;7.43;61.90;98706.41;5190834;28;20037;-79
2022/02/19 00:32:28;;;;;;;7.30;1.48;;;;;;;7.39;63.08;98703.13;5192424;28;20506;-79
2022/02/19 00:34:58;;;;;;;8.50;1.80;;;;;;;7.35;63.99;98732.78;5195534;28;20025;-79
2022/02/19 00:37:29;;;;;;;14.15;1.65;;;;;;;7.31;63.35;98725.22;5193768;28;20497;-79
2022/02/19 00:39:59;;;;;;;7.05;1.50;;;;;;;7.33;62.23;98706.06;5190425;28;20029;-79
2022/02/19 00:42:30;;;;;;;9.05;1.85;;;;;;;7.31;62.78;98720.88;5191926;28;20506;-79
2022/02/19 00:45:00;;;;;;;9.85;1.88;;;;;;;7.32;63.31;98727.75;5194334;28;20175;-79
2022/02/19 00:47:30;;;;;;;9.48;1.63;;;;;;;7.28;64.36;98714.19;5190377;28;20022;-79
2022/02/19 00:50:01;;;;;;;9.15;1.65;;;;;;;7.22;64.15;98735.25;5191526;28;20033;-79
2022/02/19 00:52:31;;;;;;;9.18;1.38;;;;;;;7.31;64.09;98714.84;5190288;28;20404;-79
2022/02/19 00:55:01;;;;;;;11.98;1.60;;;;;;;7.29;64.35;98727.94;5174334;28;20060;-79
2022/02/19 00:57:32;;;;;;;7.97;1.52;;;;;;;7.30;63.35;98708.81;5190323;28;20036;-79
2022/02/19 01:00:05;;;;;;;8.90;1.67;;;;;;;7.32;64.03;98713.94;5191901;28;20096;-79
2022/02/19 01:02:35;;;;;;;9.40;2.00;;;;;;;7.31;63.85;98720.03;5190481;28;20041;-79
2022/02/19 01:05:06;;;;;;;10.25;1.83;;;;;;;7.32;63.29;98732.97;5191035;28;20075;-79
2022/02/19 01:07:36;;;;;;;11.10;1.88;;;;;;;7.29;63.60;98759.09;5188442;28;20022;-79
2022/02/19 01:10:07;;;;;;;7.90;1.33;;;;;;;7.29;64.32;98722.72;5189949;28;20035;-79
2022/02/19 01:12:38;;;;;;;9.95;1.23;;;;;;;7.26;63.22;98736.81;5187721;28;20044;-79
2022/02/19 01:15:11;;;;;;;7.55;1.58;;;;;;;7.27;63.98;98741.91;5190376;28;20095;-79
2022/02/19 01:17:41;;;;;;;13.25;1.75;;;;;;;7.22;64.12;98722.28;5188855;28;20029;-79
2022/02/19 01:20:12;;;;;;;7.57;1.30;;;;;;;7.19;63.53;98757.06;5189698;28;20064;-79
2022/02/19 01:22:42;;;;;;;6.07;1.40;;;;;;;7.16;63.04;98740.78;5184948;28;20080;-79
2022/02/19 01:25:13;;;;;;;10.80;1.48;;;;;;;7.18;63.19;98741.53;5183995;28;20041;-79
2022/02/19 01:27:43;;;;;;;8.50;1.70;;;;;;;7.11;63.57;98766.16;5189946;28;20484;-79
2022/02/19 01:30:14;;;;;;;8.07;1.35;;;;;;;7.14;62.83;98763.41;5186090;28;20037;-79
2022/02/19 01:32:44;;;;;;;6.15;1.50;;;;;;;7.12;62.61;98773.84;5189631;28;20041;-79
2022/02/19 01:35:14;;;;;;;9.00;1.77;;;;;;;7.09;64.03;98770.59;5190660;28;20028;-79
2022/02/19 01:37:45;;;;;;;7.75;1.15;;;;;;;7.12;64.04;98797.22;5173169;28;20104;-79
2022/02/19 01:40:15;;;;;;;9.25;1.63;;;;;;;7.07;64.69;98804.41;5192595;28;20132;-79
2022/02/19 01:42:46;;;;;;;5.82;1.08;;;;;;;7.08;63.89;98784.50;5189402;28;20025;-79
2022/02/19 01:45:17;;;;;;;5.72;1.10;;;;;;;7.14;63.16;98779.81;5193644;28;20045;-79
2022/02/19 01:47:48;;;;;;;10.52;1.48;;;;;;;7.07;64.11;98813.97;5187801;28;20112;-79
2022/02/19 01:50:18;;;;;;;10.50;1.50;;;;;;;7.05;63.44;98818.38;5193075;28;20113;-79
2022/02/19 01:52:48;;;;;;;5.80;1.10;;;;;;;7.08;63.64;98828.63;5193452;28;20025;-79
2022/02/19 01:55:19;;;;;;;7.97;1.05;;;;;;;7.00;64.49;98834.22;5189974;28;20067;-79
2022/02/19 01:57:49;;;;;;;6.53;1.02;;;;;;;6.99;65.01;98823.88;5189171;28;20024;-80
2022/02/19 02:00:20;;;;;;;7.72;1.20;;;;;;;6.95;64.17;98837.94;5187681;28;20037;-79
2022/02/19 02:02:52;;;;;;;4.82;0.90;;;;;;;6.91;64.82;98837.25;5170673;28;20056;-79
2022/02/19 02:05:22;;;;;;;9.00;1.05;;;;;;;6.84;65.09;98843.66;5187144;28;20404;-79
2022/02/19 02:07:53;;;;;;;5.88;1.10;;;;;;;6.79;65.07;98834.41;5186503;28;20018;-79
2022/02/19 02:10:24;;;;;;;10.85;1.08;;;;;;;6.78;64.54;98851.72;5192382;28;20521;-79
2022/02/19 02:12:54;;;;;;;5.75;1.20;;;;;;;6.80;65.22;98849.06;5183744;28;20034;-79
2022/02/19 02:15:29;;;;;;;4.55;0.93;;;;;;;6.72;65.79;98857.22;5191244;28;20115;-79
2022/02/19 02:18:01;;;;;;;5.80;1.30;;;;;;;6.70;65.17;98877.22;5188485;28;20411;-79
2022/02/19 02:20:32;;;;;;;4.82;0.95;;;;;;;6.78;64.98;98866.47;5188688;28;20038;-79
2022/02/19 02:23:02;;;;;;;8.13;1.42;;;;;;;6.82;64.90;98855.03;5188296;28;20076;-79
2022/02/19 02:25:33;;;;;;;6.82;1.30;;;;;;;6.72;65.55;98864.13;5188651;28;20029;-78
2022/02/19 02:28:04;;;;;;;4.60;0.95;;;;;;;6.71;65.64;98870.25;5188996;28;20519;-79
2022/02/19 02:30:36;;;;;;;9.65;1.05;;;;;;;6.73;64.84;98863.25;5188996;28;20054;-79
2022/02/19 02:33:11;;;;;;;8.13;1.13;;;;;;;6.72;65.02;98872.78;5187801;28;20120;-79
2022/02/19 02:35:42;;;;;;;4.30;0.75;;;;;;;6.72;65.52;98887.50;5191035;28;20033;-79
2022/02/19 02:38:12;;;;;;;6.45;1.15;;;;;;;6.70;64.87;98869.44;5188423;28;20051;-79
2022/02/19 02:40:44;;;;;;;7.43;1.05;;;;;;;6.75;65.06;98864.03;5190647;28;20026;-79
2022/02/19 02:43:14;;;;;;;10.93;1.15;;;;;;;6.72;65.78;98884.91;5188953;28;20484;-79
2022/02/19 02:45:44;;;;;;;7.85;1.08;;;;;;;6.72;65.76;98874.53;5188573;28;20030;-79
2022/02/19 02:48:15;;;;;;;8.65;1.15;;;;;;;6.79;65.80;98883.72;5186961;28;20014;-79
2022/02/19 02:50:45;;;;;;;4.63;0.90;;;;;;;6.79;65.92;98868.16;5187572;28;20037;-79
2022/02/19 02:53:15;;;;;;;8.27;1.33;;;;;;;6.79;65.61;98899.31;5188454;28;20589;-79
2022/02/19 02:55:46;;;;;;;4.20;1.05;;;;;;;6.81;65.92;98894.88;5188645;28;20029;-79
2022/02/19 02:58:16;;;;;;;6.40;0.95;;;;;;;6.79;66.46;98897.53;5189548;28;20057;-79
2022/02/19 03:00:46;;;;;;;10.68;1.02;;;;;;;6.79;67.21;98896.69;5186728;28;21185;-79
2022/02/19 03:03:17;;;;;;;7.07;1.27;;;;;;;6.69;68.14;98914.47;5189675;28;20116;-79
2022/02/19 03:05:47;;;;;;;5.13;1.08;;;;;;;6.71;68.14;98920.41;5184972;28;20033;-79
2022/02/19 03:08:18;;;;;;;5.20;1.00;;;;;;;6.67;68.87;98924.06;5192693;28;20022;-79
2022/02/19 03:10:48;;;;;;;9.30;1.00;;;;;;;6.63;70.00;98924.28;5194076;28;20498;-79
2022/02/19 03:13:19;;;;;;;6.70;1.10;;;;;;;6.59;69.49;98943.50;5190127;28;20036;-79
2022/02/19 03:15:49;;;;;;;4.97;0.95;;;;;;;6.58;68.76;98936.63;5191908;28;20068;-79
2022/02/19 03:18:19;;;;;;;7.50;1.20;;;;;;;6.56;69.63;98947.06;5192275;28;20037;-79
2022/02/19 03:20:49;;;;;;;3.15;0.70;;;;;;;6.54;70.20;98968.81;5191576;28;20026;-79
2022/02/19 03:23:20;;;;;;;7.00;1.10;;;;;;;6.42;71.49;98977.97;5191961;28;20108;-79
2022/02/19 03:25:50;;;;;;;6.35;1.48;;;;;;;6.37;71.95;98966.13;5191375;28;20116;-79
2022/02/19 03:28:20;;;;;;;5.18;0.93;;;;;;;6.33;73.13;98996.56;5191483;28;20022;-78
2022/02/19 03:30:51;;;;;;;7.18;1.25;;;;;;;6.31;72.99;99003.56;5188250;28;20490;-79
2022/02/19 03:33:21;;;;;;;6.15;0.95;;;;;;;6.25;73.47;99026.34;5194453;28;20033;-79
2022/02/19 03:35:51;;;;;;;5.50;1.02;;;;;;;6.26;73.83;99038.38;5170117;28;20435;-78
2022/02/19 03:38:21;;;;;;;5.43;1.05;;;;;;;6.14;75.29;99042.34;5173721;28;20032;-79
2022/02/19 03:40:52;;;;;;;5.53;0.98;;;;;;;6.11;76.16;99041.63;5191220;28;20021;-82
2022/02/19 03:43:22;;;;;;;3.90;0.98;;;;;;;6.06;77.56;99047.00;5192978;28;20075;-80
2022/02/19 03:45:53;;;;;;;6.45;1.40;;;;;;;5.95;78.38;99071.69;5187188;28;20515;-79
2022/02/19 03:48:24;;;;;;;8.05;1.15;;;;;;;5.91;79.31;99080.50;5191425;28;20052;-80
2022/02/19 03:50:54;;;;;;;8.02;1.35;;;;;;;5.86;80.01;99088.47;5191410;28;20034;-79
2022/02/19 03:53:24;;;;;;;10.70;1.70;;;;;;;5.86;80.64;99098.84;5191504;28;20453;-79
2022/02/19 03:55:54;;;;;;;8.15;1.15;;;;;;;5.80;80.94;99114.66;5191874;28;20108;-79
2022/02/19 03:58:25;;;;;;;6.20;1.08;;;;;;;5.73;82.84;99104.53;5190440;28;20024;-79
2022/02/19 04:00:55;;;;;;;7.75;1.27;;;;;;;5.62;83.52;99120.50;5190689;28;20024;-81
2022/02/19 04:03:25;;;;;;;7.50;1.27;;;;;;;5.52;84.41;99144.22;5178475;28;20040;-81
2022/02/19 04:05:56;;;;;;;9.48;1.60;;;;;;;5.55;84.47;99129.41;5193034;28;20056;-79
2022/02/19 04:08:27;;;;;;;8.13;1.30;;;;;;;5.52;84.54;99137.31;5191444;28;20021;-80
2022/02/19 04:10:58;;;;;;;5.03;1.20;;;;;;;5.49;85.72;99165.94;5193476;28;20534;-81
2022/02/19 04:13:28;;;;;;;7.47;1.38;;;;;;;5.47;86.03;99151.34;5178307;28;20048;-80
2022/02/19 04:15:58;;;;;;;5.63;1.35;;;;;;;5.35;87.16;99163.91;5190938;28;20044;-79
2022/02/19 04:18:29;;;;;;;6.57;1.27;;;;;;;5.42;86.84;99153.25;5195751;28;20266;-81
2022/02/19 04:20:59;;;;;;;6.85;1.10;;;;;;;5.38;85.75;99168.06;5190818;28;20025;-79
2022/02/19 04:23:29;;;;;;;6.30;1.25;;;;;;;5.47;84.40;99164.28;5187760;28;20021;-80
2022/02/19 04:26:00;;;;;;;9.55;1.85;;;;;;;5.61;82.70;99185.34;5191380;28;20452;-80
2022/02/19 04:28:30;;;;;;;7.82;1.30;;;;;;;5.68;81.58;99207.50;5190737;28;20017;-80
2022/02/19 04:31:01;;;;;;;8.25;1.02;;;;;;;5.73;81.75;99203.03;5191069;28;20073;-80
2022/02/19 04:33:31;;;;;;;5.90;1.10;;;;;;;5.73;81.45;99195.25;5189687;28;20109;-79
2022/02/19 04:36:01;;;;;;;4.30;0.80;;;;;;;5.75;81.13;99237.50;5192902;28;20022;-80
2022/02/19 04:38:32;;;;;;;6.60;1.02;;;;;;;5.76;81.54;99232.25;5175823;28;20036;-79
2022/02/19 04:41:02;;;;;;;5.35;1.00;;;;;;;5.78;82.26;99239.97;5191992;28;20113;-80
2022/02/19 04:43:33;;;;;;;5.72;1.15;;;;;;;5.50;85.31;99241.88;5194856;28;20043;-80
2022/02/19 04:46:03;;;;;;;5.97;1.25;;;;;;;5.39;87.95;99265.59;5192284;28;20253;-79
2022/02/19 04:48:34;;;;;;;5.53;1.10;;;;;;;5.38;89.19;99255.28;5191756;28;20392;-81
2022/02/19 04:51:04;;;;;;;4.65;0.77;;;;;;;5.27;89.67;99275.53;5191217;28;20551;-79
2022/02/19 04:53:34;;;;;;;6.68;1.40;;;;;;;5.18;91.04;99298.31;5191210;28;20113;-80
2022/02/19 04:56:05;;;;;;;7.38;1.17;;;;;;;5.08;91.20;99302.97;5192202;28;20449;-79
2022/02/19 04:58:35;;;;;;;4.63;1.17;;;;;;;5.06;92.57;99297.00;5191591;28;20034;-80
2022/02/19 05:01:05;;;;;;;4.82;1.02;;;;;;;4.98;92.49;99311.94;5191078;28;20033;-79
2022/02/19 05:03:35;;;;;;;4.55;1.08;;;;;;;4.93;93.38;99313.84;5194436;28;20574;-79
2022/02/19 05:06:06;;;;;;;8.02;1.10;;;;;;;4.95;93.46;99316.38;5196412;28;20037;-79
2022/02/19 05:08:36;;;;;;;9.00;1.17;;;;;;;4.91;93.52;99318.22;5190718;28;20426;-79
2022/02/19 05:11:07;;;;;;;7.90;1.30;;;;;;;4.91;93.38;99320.81;5190924;28;20241;-80
2022/02/19 05:13:38;;;;;;;5.78;1.10;;;;;;;4.90;93.42;99342.41;5192788;28;20034;-81
2022/02/19 05:16:08;;;;;;;12.18;1.50;;;;;;;4.92;93.40;99335.44;5191695;28;20032;-80
2022/02/19 05:18:38;;;;;;;10.32;1.25;;;;;;;4.90;93.50;99334.66;5190351;28;20029;-80
2022/02/19 05:21:08;;;;;;;5.38;1.10;;;;;;;4.91;93.76;99348.41;5191322;28;20065;-80
2022/02/19 05:23:39;;;;;;;6.32;1.05;;;;;;;4.89;93.47;99358.84;5190521;28;20030;-80
2022/02/19 05:26:09;;;;;;;6.78;0.95;;;;;;;4.94;93.26;99363.88;5191507;28;20025;-79
2022/02/19 05:28:41;;;;;;;7.40;1.17;;;;;;;4.93;93.46;99372.50;5190169;28;20112;-79
2022/02/19 05:31:12;;;;;;;4.65;1.02;;;;;;;4.84;94.30;99373.66;5191086;28;20447;-80
2022/02/19 05:33:43;;;;;;;12.85;1.30;;;;;;;4.86;95.18;99371.88;5191708;28;20049;-80
2022/02/19 05:36:13;;;;;;;7.10;1.13;;;;;;;4.83;95.00;99390.06;5195849;28;20069;-79
2022/02/19 05:38:43;;;;;;;8.98;1.27;;;;;;;4.78;95.12;99394.56;5189394;28;20380;-81
2022/02/19 05:41:13;;;;;;;6.38;1.10;;;;;;;4.88;94.82;99403.72;5189939;28;20076;-82
2022/02/19 05:43:44;;;;;;;3.58;0.80;;;;;;;4.77;95.00;99407.56;5196125;28;20052;-81
2022/02/19 05:46:14;;;;;;;6.85;1.25;;;;;;;4.86;94.51;99422.78;5189662;28;20073;-81
2022/02/19 05:48:44;;;;;;;7.43;1.30;;;;;;;4.90;93.75;99412.28;5191815;28;20028;-81
2022/02/19 05:51:14;;;;;;;7.30;1.45;;;;;;;4.99;92.74;99440.47;5189497;28;20033;-80
2022/02/19 05:53:46;;;;;;;6.55;0.90;;;;;;;4.99;92.13;99439.63;5191459;28;20041;-80
2022/02/19 05:56:16;;;;;;;5.15;0.95;;;;;;;4.98;92.18;99440.53;5188876;28;20045;-79
2022/02/19 05:58:47;;;;;;;9.32;1.30;;;;;;;4.94;93.10;99447.53;5191818;28;20480;-80
2022/02/19 06:01:17;;;;;;;9.40;1.52;;;;;;;4.93;93.40;99473.44;5188792;28;20030;-80
2022/02/19 06:03:47;;;;;;;5.75;1.00;;;;;;;4.91;93.92;99483.00;5194468;28;20279;-81
2022/02/19 06:06:17;;;;;;;7.72;1.13;;;;;;;4.89;94.67;99477.88;5195746;28;20434;-81
2022/02/19 06:08:48;;;;;;;8.90;1.27;;;;;;;4.85;94.33;99476.28;5188693;28;20025;-79
2022/02/19 06:11:19;;;;;;;11.15;1.15;;;;;;;4.85;94.25;99491.81;5189903;28;20033;-80
2022/02/19 06:13:49;;;;;;;4.65;0.80;;;;;;;4.84;93.91;99500.44;5174315;28;20456;-79
2022/02/19 06:16:19;;;;;;;8.52;1.02;;;;;;;4.92;92.97;99490.72;5192116;28;20049;-79
2022/02/19 06:18:50;;;;;;;4.55;1.10;;;;;;;4.99;93.17;99499.16;5188012;28;20498;-80
2022/02/19 06:21:20;;;;;;;4.13;0.93;;;;;;;4.99;92.88;99509.53;5192305;28;20108;-79
2022/02/19 06:23:50;;;;;;;7.90;1.13;;;;;;;5.00;93.46;99532.75;5187725;28;20491;-78
2022/02/19 06:26:20;;;;;;;7.85;1.17;;;;;;;4.99;93.90;99533.66;5188204;28;20546;-78
2022/02/19 06:28:51;;;;;;;4.10;1.02;;;;;;;4.99;95.34;99541.41;5191589;28;20047;-79
2022/02/19 06:31:21;;;;;;;6.70;1.10;;;;;;;4.98;95.71;99544.91;5187917;28;20141;-80
2022/02/19 06:33:51;;;;;;;6.60;1.05;;;;;;;4.92;95.02;99554.59;5194169;28;20037;-81
2022/02/19 06:36:22;;;;;;;8.68;1.27;;;;;;;4.95;94.97;99565.69;5195775;28;20036;-80
2022/02/19 06:38:52;;;;;;;4.47;1.13;;;;;;;4.96;94.05;99575.16;5170951;28;20022;-79
2022/02/19 06:41:22;;;;;;;11.65;1.20;;;;;;;4.99;93.49;99563.88;5189359;28;20041;-79
2022/02/19 06:43:53;;;;;;;4.25;1.38;;;;;;;4.98;92.70;99585.50;5199509;28;20049;-79
2022/02/19 06:46:23;;;;;;;5.53;1.00;;;;;;;4.96;92.93;99598.47;5191964;28;20037;-79
2022/02/19 06:48:54;;;;;;;7.25;0.90;;;;;;;4.96;92.80;99602.81;5195695;28;20080;-79
2022/02/19 06:51:27;;;;;;;4.57;1.08;;;;;;;4.98;92.46;99601.00;5174364;28;20041;-80
2022/02/19 06:53:57;;;;;;;4.93;1.05;;;;;;;5.00;92.06;99610.41;5194605;28;20029;-79
2022/02/19 06:56:30;;;;;;;3.90;0.93;;;;;;;5.06;90.38;99607.66;5192503;28;20100;-79
2022/02/19 06:59:00;;;;;;;4.47;0.98;;;;;;;5.12;89.75;99622.19;5194644;28;20620;-80
2022/02/19 07:01:30;;;;;;;7.88;1.27;;;;;;;5.15;89.90;99628.09;5194503;28;20039;-81
2022/02/19 07:04:00;;;;;;;6.40;1.10;;;;;;;5.13;90.37;99632.47;5195052;28;20532;-80
2022/02/19 07:06:31;;;;;;;7.97;1.00;;;;;;;5.09;89.93;99651.59;5198043;28;20037;-79
2022/02/19 07:09:02;;;;;;;5.15;0.80;;;;;;;5.11;90.04;99646.38;5193140;28;20033;-80
2022/02/19 07:11:32;;;;;;;4.50;1.20;;;;;;;5.08;90.46;99655.06;5192395;28;20034;-79
2022/02/19 07:14:02;;;;;;;8.38;1.15;;;;;;;5.07;90.59;99662.88;5196356;28;20053;-80
2022/02/19 07:16:33;;;;;;;7.25;1.20;;;;;;;5.11;89.48;99669.69;5193835;28;20394;-81
2022/02/19 07:19:03;;;;;;;6.88;1.20;;;;;;;5.23;88.46;99670.19;5193424;28;20030;-80
2022/02/19 07:21:34;;;;;;;5.72;1.17;;;;;;;5.31;87.35;99682.91;5193605;28;20116;-80
2022/02/19 07:24:05;;;;;;;7.35;1.27;;;;;;;5.37;85.81;99678.41;5193226;28;20036;-79
2022/02/19 07:26:35;;;;;;;7.00;1.50;;;;;;;5.45;83.85;99691.97;5190012;28;20044;-80
2022/02/19 07:29:06;;;;;;;4.57;1.02;;;;;;;5.55;81.86;99696.00;5193437;28;20022;-79
2022/02/19 07:31:36;;;;;;;8.70;1.55;;;;;;;5.65;81.56;99700.00;5193469;28;20087;-80
2022/02/19 07:34:06;;;;;;;10.18;1.30;;;;;;;5.70;80.19;99716.25;5188937;28;20054;-79
2022/02/19 07:36:36;;;;;;;8.98;1.50;;;;;;;5.78;79.78;99727.25;5198316;28;20515;-79
2022/02/19 07:39:08;;;;;;;6.57;1.30;;;;;;;5.78;80.11;99728.13;5192763;28;20379;-79
2022/02/19 07:41:38;;;;;;;7.38;1.80;;;;;;;5.77;79.94;99741.94;5193184;28;20057;-80
2022/02/19 07:44:08;;;;;;;5.43;0.90;;;;;;;5.84;78.83;99729.69;5192367;28;20510;-79
2022/02/19 07:46:39;;;;;;;7.60;1.48;;;;;;;5.84;79.10;99747.84;5192871;28;20044;-79
2022/02/19 08:00:25;;;;;;;6.05;1.00;;;;;;;6.13;76.95;99784.13;5192137;28;20025;-80
2022/02/19 08:02:55;;;;;;;10.68;1.48;;;;;;;6.07;76.04;99787.75;5190457;28;20476;-80
2022/02/19 08:05:25;;;;;;;6.00;1.10;;;;;;;6.04;75.08;99793.03;5197528;28;20735;-79
2022/02/19 08:07:56;;;;;;;5.05;0.95;;;;;;;6.13;76.08;99790.16;5192844;28;20022;-79
2022/02/19 08:10:26;;;;;;;4.35;1.05;;;;;;;6.16;75.16;99805.63;5190273;28;20037;-79
2022/02/19 08:12:56;;;;;;;7.45;1.02;;;;;;;6.26;74.73;99808.78;5191439;28;20719;-79
2022/02/19 08:15:26;;;;;;;13.80;1.40;;;;;;;6.34;74.07;99814.59;5193057;28;20044;-80
2022/02/19 08:17:57;;;;;;;8.70;1.33;;;;;;;6.34;74.74;99828.44;5191094;28;20287;-81
2022/02/19 08:20:27;;;;;;;4.75;1.17;;;;;;;6.33;74.45;99836.25;5194703;28;20091;-79
2022/02/19 08:22:59;;;;;;;4.63;1.10;;;;;;;6.22;74.21;99838.34;5195356;28;20031;-79
2022/02/19 08:25:31;;;;;;;8.85;1.27;;;;;;;6.35;74.13;99844.81;5194271;28;20029;-80
2022/02/19 08:28:02;;;;;;;6.95;1.08;;;;;;;6.28;74.03;99861.47;5191055;28;20018;-80
2022/02/19 08:30:36;;;;;;;5.28;0.90;;;;;;;6.37;73.75;99858.59;5192182;28;20383;-79
2022/02/19 08:33:08;;;;;;;4.28;1.08;;;;;;;6.36;75.24;99872.47;5191718;28;20018;-80
2022/02/19 08:35:40;;;;;;;7.57;0.90;;;;;;;6.22;74.26;99879.84;5197552;28;20040;-80
2022/02/19 08:38:11;;;;;;;4.53;1.20;;;;;;;6.18;75.00;99876.47;5192766;28;20068;-81
2022/02/19 08:40:42;;;;;;;8.93;1.45;;;;;;;6.18;74.61;99893.75;5193671;28;20479;-82
2022/02/19 08:43:12;;;;;;;7.03;1.25;;;;;;;6.19;74.78;99896.31;5194072;28;20043;-80
2022/02/19 08:45:43;;;;;;;5.63;1.10;;;;;;;6.17;76.13;99903.31;5190372;28;20195;-82
2022/02/19 08:48:13;;;;;;;6.65;1.30;;;;;;;6.22;75.53;99908.38;5193036;28;20024;-81
2022/02/19 08:50:43;;;;;;;5.32;0.95;;;;;;;6.20;75.35;99917.91;5195986;28;20406;-81
2022/02/19 08:53:14;;;;;;;6.80;1.13;;;;;;;6.21;77.12;99915.28;5177137;28;20433;-82
2022/02/19 08:55:45;;;;;;;6.55;1.58;;;;;;;6.16;77.25;99926.69;5192685;28;20087;-80
2022/02/19 08:58:15;;;;;;;7.70;1.27;;;;;;;6.08;77.45;99918.28;5192497;28;20104;-81
2022/02/19 09:00:46;;;;;;;7.82;1.40;;;;;;;6.13;77.45;99929.38;5193238;28;20025;-80
2022/02/19 09:03:17;;;;;;;9.23;1.42;;;;;;;6.05;78.01;99941.72;5193507;28;20029;-81
2022/02/19 09:05:47;;;;;;;9.90;1.10;;;;;;;6.14;78.01;99944.03;5194453;28;20091;-80
2022/02/19 09:08:17;;;;;;;8.77;1.48;;;;;;;6.11;78.05;99955.34;5193878;28;20162;-80
2022/02/19 09:10:48;;;;;;;8.30;1.27;;;;;;;6.11;77.68;99963.13;5190046;28;20037;-80
2022/02/19 09:13:18;;;;;;;11.07;2.03;;;;;;;6.16;77.78;99965.59;5173040;28;20025;-80
2022/02/19 09:15:49;;;;;;;11.52;1.38;;;;;;;6.07;77.56;99963.25;5193567;28;20545;-81
2022/02/19 09:18:19;;;;;;;11.25;1.30;;;;;;;6.11;77.53;99965.72;5171345;28;20060;-80
2022/02/19 09:20:50;;;;;;;7.80;1.30;;;;;;;6.11;78.33;99967.47;5176214;28;20447;-80
2022/02/19 09:23:20;;;;;;;8.40;1.40;;;;;;;6.20;76.71;99965.47;5194637;28;20033;-80
2022/02/19 09:25:50;;;;;;;5.90;1.42;;;;;;;6.27;76.76;99972.19;5189914;28;20025;-80
2022/02/19 09:28:24;;;;;;;8.05;1.30;;;;;;;6.25;76.75;99978.31;5187245;28;20483;-82
2022/02/19 09:30:56;;;;;;;9.38;1.10;;;;;;;6.37;76.16;99977.97;5191269;28;20033;-80
2022/02/19 09:33:26;;;;;;;7.88;1.52;;;;;;;6.43;75.96;99988.19;5188157;28;20048;-81
2022/02/19 09:35:57;;;;;;;8.10;1.50;;;;;;;6.42;75.64;99989.09;5194341;28;20377;-82
2022/02/19 09:38:28;;;;;;;10.77;1.42;;;;;;;6.44;75.86;99995.06;5184975;28;20099;-81
2022/02/19 09:41:01;;;;;;;7.50;1.10;;;;;;;6.48;75.59;100013.13;5191339;28;20036;-79
2022/02/19 09:43:31;;;;;;;10.40;1.58;;;;;;;6.61;75.75;100003.22;5190917;28;20041;-80
2022/02/19 09:46:03;;;;;;;9.10;1.17;;;;;;;6.58;74.73;100009.34;5187202;28;20099;-80
2022/02/19 09:48:35;;;;;;;8.35;1.23;;;;;;;6.65;74.79;100008.31;5187629;28;20547;-81
2022/02/19 09:51:08;;;;;;;5.80;1.20;;;;;;;6.56;74.56;100020.69;5193458;28;20554;-82
2022/02/19 09:53:39;;;;;;;5.70;1.17;;;;;;;6.49;75.01;100035.59;5192381;28;20498;-80
2022/02/19 09:56:10;;;;;;;6.82;1.63;;;;;;;6.50;75.12;100039.88;5189830;28;20056;-81
2022/02/19 09:58:43;;;;;;;7.40;1.45;;;;;;;6.53;74.54;100042.38;5190688;28;20041;-81
2022/02/19 10:01:17;;;;;;;8.35;1.30;;;;;;;6.47;74.05;100052.06;5190695;28;20034;-80
2022/02/19 10:04:01;;;;;;;7.13;1.00;;;;;;;6.48;74.80;100058.97;5192133;28;20150;-81
2022/02/19 10:06:34;;;;;;;6.68;1.05;;;;;;;6.59;74.28;100054.34;5183349;28;20037;-80
2022/02/19 10:09:18;;;;;;;4.80;1.13;;;;;;;6.67;73.66;100065.34;5190658;28;20273;-81
2022/02/19 10:11:52;;;;;;;7.20;1.15;;;;;;;6.94;73.29;100062.81;5190943;28;20515;-81
2022/02/19 10:14:26;;;;;;;8.32;1.50;;;;;;;7.18;72.80;100076.84;5190137;28;20042;-81
2022/02/19 10:17:16;;;;;;;7.40;1.30;;;;;;;7.41;71.59;100083.91;5187485;28;20030;-80
2022/02/19 10:20:04;;;;;;;8.38;1.42;;;;;;;7.52;70.86;100084.41;5188153;28;20199;-80
2022/02/19 10:22:37;;;;;;;6.97;1.30;;;;;;;7.60;71.19;100085.03;5191183;28;20037;-81
2022/02/19 10:25:13;;;;;;;8.10;1.30;;;;;;;7.64;71.39;100091.84;5188615;28;20034;-81
2022/02/19 10:27:46;;;;;;;11.20;1.83;;;;;;;7.63;72.27;100097.94;5171112;28;20464;-81
2022/02/19 10:30:22;;;;;;;9.18;1.65;;;;;;;7.60;73.23;100105.84;5189093;28;20077;-81
2022/02/19 10:33:00;;;;;;;7.65;1.30;;;;;;;7.50;72.85;100109.59;5192209;28;20540;-81
2022/02/19 10:35:37;;;;;;;7.50;1.60;;;;;;;7.62;73.07;100129.16;5195959;28;20052;-81
2022/02/19 10:38:10;;;;;;;5.57;1.23;;;;;;;7.75;73.54;100115.75;5193051;28;20022;-81
2022/02/19 10:40:46;;;;;;;5.88;1.40;;;;;;;8.06;72.30;100137.28;5194887;28;20102;-81
2022/02/19 10:43:23;;;;;;;5.93;1.35;;;;;;;7.94;72.88;100129.88;5165792;28;20375;-81
2022/02/19 10:45:55;;;;;;;7.25;1.50;;;;;;;7.90;73.14;100143.03;5175047;28;20041;-81
2022/02/19 10:48:30;;;;;;;9.70;1.80;;;;;;;7.61;72.78;100138.75;5195061;28;20060;-80
2022/02/19 10:51:12;;;;;;;7.10;1.50;;;;;;;7.55;73.13;100143.28;5195277;28;20103;-81
2022/02/19 10:53:54;;;;;;;6.15;1.70;;;;;;;7.40;73.63;100155.00;5191023;28;20796;-81
2022/02/19 10:56:25;;;;;;;10.05;1.65;;;;;;;7.29;75.28;100159.63;5188142;28;20112;-80
2022/02/19 10:59:06;;;;;;;5.80;1.50;;;;;;;7.04;74.89;100162.09;5189117;28;20035;-80
2022/02/19 11:01:45;;;;;;;9.20;2.55;;;;;;;7.06;75.17;100162.91;5189817;28;20037;-81
2022/02/19 11:04:17;;;;;;;9.10;1.90;;;;;;;7.00;74.72;100171.75;5194242;28;20540;-81
2022/02/19 11:06:48;;;;;;;8.25;1.70;;;;;;;6.82;75.39;100169.66;5187674;28;20053;-81
2022/02/19 11:09:19;;;;;;;9.50;1.55;;;;;;;6.95;75.33;100175.38;5186887;28;20687;-80
2022/02/19 11:11:50;;;;;;;8.00;1.88;;;;;;;6.81;74.60;100172.28;5191848;28;20690;-81
2022/02/19 11:14:20;;;;;;;6.82;1.45;;;;;;;6.73;74.00;100182.03;5187247;28;20029;-81
2022/02/19 11:16:51;;;;;;;10.63;1.73;;;;;;;6.84;74.75;100174.78;5187393;28;20038;-80
2022/02/19 11:19:22;;;;;;;6.80;1.52;;;;;;;6.87;74.47;100185.97;5192524;28;20029;-81
2022/02/19 11:21:54;;;;;;;5.90;1.35;;;;;;;6.72;75.26;100188.97;5192897;28;20045;-80
2022/02/19 11:24:27;;;;;;;9.18;1.33;;;;;;;6.67;76.44;100198.63;5190691;28;20021;-81
2022/02/19 11:27:01;;;;;;;7.60;1.40;;;;;;;6.70;74.94;100198.53;5188677;28;20077;-80
2022/02/19 11:29:31;;;;;;;7.15;1.15;;;;;;;6.68;75.11;100189.94;5177483;28;20109;-81
2022/02/19 11:32:04;;;;;;;11.07;1.98;;;;;;;6.84;75.35;100198.16;5193073;28;20128;-80
2022/02/19 11:34:34;;;;;;;5.45;1.40;;;;;;;6.85;75.07;100190.34;5194810;28;20060;-80
2022/02/19 11:37:17;;;;;;;8.57;1.50;;;;;;;6.79;73.41;100189.66;5195917;28;20507;-81
2022/02/19 11:40:00;;;;;;;9.18;1.98;;;;;;;6.93;74.27;100198.78;5191383;28;20033;-80
2022/02/19 11:42:42;;;;;;;6.68;1.63;;;;;;;7.04;74.12;100191.56;5193782;28;20048;-81
2022/02/19 11:45:31;;;;;;;6.90;1.92;;;;;;;7.12;75.55;100199.97;5194563;28;20060;-81
2022/02/19 11:48:04;;;;;;;13.82;2.90;;;;;;;7.19;74.61;100190.25;5190936;28;20033;-80
2022/02/19 11:50:37;;;;;;;7.13;1.70;;;;;;;7.22;73.11;100191.88;5193615;28;20046;-81
2022/02/19 11:53:13;;;;;;;9.95;1.88;;;;;;;7.19;74.11;100187.66;5193681;28;20048;-80
2022/02/19 11:55:45;;;;;;;9.20;1.88;;;;;;;7.15;72.40;100186.06;5194860;28;20033;-80
2022/02/19 11:58:18;;;;;;;7.30;1.45;;;;;;;6.99;72.01;100201.22;5192281;28;20141;-80
2022/02/19 12:00:56;;;;;;;12.82;1.92;;;;;;;6.95;72.45;100203.94;5200171;28;20498;-80
2022/02/19 12:03:31;;;;;;;9.50;2.30;;;;;;;7.00;72.75;100209.84;5190746;28;20092;-80
2022/02/19 12:06:23;;;;;;;12.02;1.58;;;;;;;6.97;73.14;100200.38;5193815;28;20423;-81
2022/02/19 12:09:18;;;;;;;11.30;2.45;;;;;;;7.03;73.70;100201.97;5190404;28;20120;-80
2022/02/19 12:12:06;;;;;;;5.78;1.40;;;;;;;6.97;71.90;100209.94;5174825;28;20044;-81